Terminal Aerodrome Forecast
Issued by NWS Spokane, WA

Home | Current Version | Previous Version | Text Only | Print | Product List | Glossary On
Versions: 1 2 3 4 5 6 7 8 9 10 11 12 13 14 15 16 17 18 19 20 21 22 23 24 25 26
000
FTUS46 KOTX 281140
TAFLWS
TAF
KLWS 281140Z 2812/2912 27008KT P6SM -SHRA BKN045 OVC060
     FM281400 27018G26KT P6SM BKN060 BKN120
     FM281800 26020G26KT P6SM SCT060
     FM282300 27013G20KT P6SM FEW070
     FM290200 15004KT P6SM SKC=

USA.gov is the U.S. government's official web portal to all federal, state and local government web resources and services.